Brent, Alabama
Current Conditions -  °F | °C
As of 4:39 AM on Sunday 21 Dec 2014 (Local Time) from KEET Reporting Station
Haze Haze  
Wind Chill: 46°   Ceiling: 600
Heat Index: 46°   Visibility: 5mi
Dew Point: 43°   Wind: 3mph
Humidity: 89%   Direction: 50°NE
Pressure: 30.17"   Gusts: NA
Location:  32.94°N, 87.16°W
Report Text: KEET 211039Z AUTO 05003KT 5SM BR BKN006 OVC011 08/06 A3017 RMK AO2 T00780061
Loading
Personal Weather Stations






























Interactive Weather Map New forecast layout! Learn more

10-Day Weather Forecast

Advertisements
Track Severe Weather on mobile